Portada
METAR-TAF:

METAR-TAF

Aeropuertos :

Abiyán, Costa de Marfil

Aeropuerto Port Bouet

latitud: 05-15N, longitud: 003-56W, altitud: 7 m

Observación

El informe se hizo hace 35 minutos, a las 07:30 UTC
Viento 2 kt del este-noreste
Temperatura 24°C
Humedad 94%
Presión 1015 hPa
Visibilidad: 6000 m
Nubes dispersas a una altura de 1200 ft

METAR: DIAP 200730Z 07002KT 6000 SCT012 24/23 Q1015 TEMPO 4000 BR

Hora: 08:05 (08:05 UTC)

Pronóstico

El informe se hizo hace 3 horas y 5 minutos, a las 05:00 UTC
Pronóstico válido del 20 a las 06 UTC al 21 a las 12 UTC
Viento 2 kt con dirección variable
Visibilidad: 7000 m
Nubes dispersas a una altura de 1200 ft
Probabilidad 30%
del 20 a las 06 UTC al 20 a las 08 UTC
Visibilidad: 2000 m
Nubes dispersas a una altura de 1000 ft
neblina
Evolucionando progresivamente
del 20 a las 08 UTC al 20 a las 10 UTC
Viento 10 kt del suroeste

TAF: DIAP 200500Z 2006/2112 VRB02KT 7000 SCT012 PROB30 2006/2008 2000 BR SCT010 BECMG 2008/2010 23010KT

Observaciones y pronósticos meteorológicos de más de 4000 aeropuertos (mensajes METAR y TAF).

Los puntos amarillos y rojos representan las estaciones disponibles.

Ponga el ratón en el punto deseado para ver el nombre de la estación.

Haga clic para ver las observaciones y los pronósticos meteorológicos.

Para cambiar el mapa : haga clic en los botones verdes con una cruz de color negro para hacer un zoom, en el botón verde con un guión para alejar o en las flechas verdes para mapas adyacentes.


METAR-TAF: